createdAt,value
2023-03-30T00:01:05.983Z,12.20
2023-03-30T00:03:33.370Z,12.07
2023-03-30T00:06:05.236Z,12.29
2023-03-30T00:08:33.425Z,12.30
2023-03-30T00:11:02.064Z,11.87
2023-03-30T00:13:29.357Z,12.30
2023-03-30T00:15:56.221Z,12.21
2023-03-30T00:18:22.792Z,11.84
2023-03-30T00:20:50.721Z,12.15
2023-03-30T00:23:20.596Z,12.02
2023-03-30T00:25:47.160Z,12.33
2023-03-30T00:28:14.047Z,12.19
2023-03-30T00:30:40.527Z,12.35
2023-03-30T00:33:07.242Z,11.91
2023-03-30T00:35:33.952Z,12.26
2023-03-30T00:38:04.255Z,11.92
2023-03-30T00:40:31.860Z,12.48
2023-03-30T00:43:06.551Z,12.30
2023-03-30T00:45:34.886Z,12.38
2023-03-30T00:48:07.049Z,12.11
2023-03-30T00:50:44.900Z,12.18
2023-03-30T00:53:19.120Z,12.38
2023-03-30T00:55:48.578Z,12.36
2023-03-30T00:58:17.926Z,12.07
2023-03-30T01:00:47.262Z,12.36
2023-03-30T01:03:24.889Z,12.35
2023-03-30T01:05:53.129Z,11.84
2023-03-30T01:08:20.510Z,12.06
2023-03-30T01:10:47.149Z,12.07
2023-03-30T01:13:15.118Z,11.65
2023-03-30T01:16:01.564Z,12.18
2023-03-30T01:18:48.011Z,11.96
2023-03-30T01:21:15.950Z,12.22
2023-03-30T01:24:22.283Z,12.01
2023-03-30T01:26:57.898Z,12.20
2023-03-30T01:29:24.648Z,12.19
2023-03-30T01:32:27.574Z,12.20
2023-03-30T01:35:12.627Z,12.17
2023-03-30T01:37:48.651Z,12.17
2023-03-30T01:40:27.572Z,12.16
2023-03-30T01:43:09.238Z,12.15
2023-03-30T01:45:43.344Z,12.16
2023-03-30T01:48:45.324Z,12.01
2023-03-30T01:51:19.666Z,12.14
2023-03-30T01:54:17.898Z,11.98
2023-03-30T01:56:50.863Z,11.83
2023-03-30T01:59:23.851Z,11.90
2023-03-30T02:01:54.117Z,12.12
2023-03-30T02:04:22.842Z,12.22
2023-03-30T02:06:59.628Z,12.11
2023-03-30T02:09:29.152Z,11.83
2023-03-30T02:11:56.937Z,12.00
2023-03-30T02:14:28.701Z,11.84
2023-03-30T02:17:04.720Z,11.99
2023-03-30T02:19:31.801Z,11.94
2023-03-30T02:21:59.043Z,11.93
2023-03-30T02:24:28.950Z,11.91
2023-03-30T02:26:55.849Z,11.32
2023-03-30T02:29:23.097Z,11.86
2023-03-30T02:31:53.420Z,11.84
2023-03-30T02:34:43.452Z,11.84
2023-03-30T02:37:20.972Z,11.82
2023-03-30T02:39:59.286Z,11.82
2023-03-30T02:43:04.925Z,11.47
2023-03-30T02:45:42.044Z,11.83
2023-03-30T02:48:27.394Z,11.83
2023-03-30T02:51:14.404Z,11.75
2023-03-30T02:53:53.256Z,11.57
2023-03-30T02:56:31.878Z,11.80
2023-03-30T02:59:10.308Z,11.47
2023-03-30T03:01:44.129Z,11.63
2023-03-30T03:04:18.822Z,11.78
2023-03-30T03:06:46.331Z,11.78
2023-03-30T03:09:12.728Z,11.62
2023-03-30T03:11:39.293Z,11.79
2023-03-30T03:14:05.915Z,11.78
2023-03-30T03:16:32.412Z,11.51
2023-03-30T03:18:58.834Z,11.48
2023-03-30T03:21:25.291Z,11.74
2023-03-30T03:23:51.801Z,11.22
2023-03-30T03:26:18.591Z,11.25
2023-03-30T03:28:45.068Z,11.54
2023-03-30T03:31:12.203Z,11.17
2023-03-30T03:33:38.686Z,11.56
2023-03-30T03:36:05.816Z,11.25
2023-03-30T03:38:32.891Z,11.03
2023-03-30T03:40:59.874Z,11.27
2023-03-30T03:43:26.581Z,10.98
2023-03-30T03:45:53.380Z,11.35
2023-03-30T03:48:22.149Z,11.33
2023-03-30T03:50:53.328Z,11.25
2023-03-30T03:53:20.446Z,11.10
2023-03-30T03:55:47.167Z,10.97
2023-03-30T03:58:14.897Z,11.17
2023-03-30T04:00:41.532Z,11.08
2023-03-30T04:03:09.232Z,11.12
2023-03-30T04:05:36.409Z,11.35
2023-03-30T04:08:03.257Z,11.02
2023-03-30T04:10:30.206Z,11.38
2023-03-30T04:12:58.100Z,11.16
2023-03-30T04:15:25.396Z,11.41
2023-03-30T04:17:57.912Z,11.10
2023-03-30T04:20:26.533Z,11.35
2023-03-30T04:22:53.541Z,11.37
2023-03-30T04:25:28.852Z,11.28
2023-03-30T04:27:56.738Z,11.46
2023-03-30T04:30:23.698Z,11.13
2023-03-30T04:33:03.356Z,11.40
2023-03-30T04:35:31.271Z,11.60
2023-03-30T04:37:58.321Z,11.49
2023-03-30T04:40:24.897Z,11.19
2023-03-30T04:42:51.318Z,11.45
2023-03-30T04:45:19.030Z,11.43
2023-03-30T04:47:48.575Z,11.25
2023-03-30T04:50:15.615Z,11.20
2023-03-30T04:52:42.242Z,11.22
2023-03-30T04:55:09.915Z,11.30
2023-03-30T04:57:36.417Z,11.18
2023-03-30T05:00:08.111Z,11.32
2023-03-30T05:02:35.156Z,11.31
2023-03-30T05:05:01.975Z,11.00
2023-03-30T05:07:28.465Z,11.12
2023-03-30T05:09:54.977Z,11.28
2023-03-30T05:12:21.643Z,11.29
2023-03-30T05:14:48.103Z,10.84
2023-03-30T05:17:14.581Z,11.32
2023-03-30T05:19:41.471Z,11.35
2023-03-30T05:22:08.244Z,11.38
2023-03-30T05:24:34.743Z,11.22
2023-03-30T05:27:02.252Z,11.45
2023-03-30T05:29:28.746Z,11.32
2023-03-30T05:31:55.401Z,11.50
2023-03-30T05:34:21.912Z,11.48
2023-03-30T05:36:48.459Z,11.46
2023-03-30T05:39:15.225Z,11.27
2023-03-30T05:41:41.659Z,11.76
2023-03-30T05:44:08.207Z,11.83
2023-03-30T05:46:34.740Z,11.57
2023-03-30T05:49:01.377Z,11.98
2023-03-30T05:51:28.404Z,11.57
2023-03-30T05:53:54.986Z,12.17
2023-03-30T05:56:23.486Z,12.10
2023-03-30T05:58:49.953Z,12.12
2023-03-30T06:01:16.894Z,11.98
2023-03-30T06:03:43.658Z,11.87
2023-03-30T06:06:10.913Z,12.18
2023-03-30T06:08:37.358Z,12.12
2023-03-30T06:11:04.563Z,12.43
2023-03-30T06:13:31.881Z,12.16
2023-03-30T06:15:59.657Z,12.45
2023-03-30T06:18:28.019Z,12.24
2023-03-30T06:20:54.459Z,12.48
2023-03-30T06:23:21.194Z,12.52
2023-03-30T06:25:53.156Z,12.55
2023-03-30T06:28:20.594Z,12.43
2023-03-30T06:30:49.143Z,12.39
2023-03-30T06:33:19.294Z,12.47
2023-03-30T06:35:51.160Z,12.71
2023-03-30T06:38:19.485Z,12.68
2023-03-30T06:40:46.004Z,12.59
2023-03-30T06:43:17.965Z,12.82
2023-03-30T06:45:51.047Z,12.89
2023-03-30T06:48:19.714Z,12.88
2023-03-30T06:50:47.391Z,12.74
2023-03-30T06:53:14.085Z,13.03
2023-03-30T06:55:42.089Z,13.08
2023-03-30T06:58:09.548Z,13.13
2023-03-30T07:00:36.393Z,13.11
2023-03-30T07:03:04.071Z,13.23
2023-03-30T07:05:30.655Z,13.28
2023-03-30T07:07:57.547Z,13.14
2023-03-30T07:10:24.225Z,13.26
2023-03-30T07:12:50.676Z,13.10
2023-03-30T07:15:17.770Z,13.40
2023-03-30T07:17:45.036Z,13.43
2023-03-30T07:20:14.909Z,13.45
2023-03-30T07:22:44.811Z,13.36
2023-03-30T07:25:11.480Z,13.52
2023-03-30T07:27:38.184Z,13.50
2023-03-30T07:30:18.005Z,13.50
2023-03-30T07:32:48.987Z,13.34
2023-03-30T07:35:15.821Z,13.56
2023-03-30T07:37:43.004Z,13.34
2023-03-30T07:40:10.052Z,13.46
2023-03-30T07:42:37.185Z,13.57
2023-03-30T07:45:04.860Z,13.58
2023-03-30T07:47:31.396Z,13.71
2023-03-30T07:49:58.390Z,13.79
2023-03-30T07:52:25.271Z,13.73
2023-03-30T07:54:52.433Z,13.52
2023-03-30T07:57:19.042Z,13.69
2023-03-30T07:59:45.816Z,13.85
2023-03-30T08:02:14.279Z,13.75
2023-03-30T08:04:44.510Z,14.13
2023-03-30T08:07:12.065Z,13.68
2023-03-30T08:09:39.672Z,14.26
2023-03-30T08:12:07.409Z,14.36
2023-03-30T08:14:33.917Z,14.14
2023-03-30T08:17:00.700Z,14.45
2023-03-30T08:19:28.502Z,14.41
2023-03-30T08:21:56.743Z,14.50
2023-03-30T08:24:23.372Z,14.56
2023-03-30T08:26:49.823Z,14.61
2023-03-30T08:29:17.045Z,14.57
2023-03-30T08:31:43.732Z,14.79
2023-03-30T08:34:10.247Z,14.86
2023-03-30T08:36:36.716Z,14.78
2023-03-30T08:39:05.071Z,15.16
2023-03-30T08:41:59.860Z,15.25
2023-03-30T08:44:26.482Z,15.24
2023-03-30T08:46:54.736Z,15.25
2023-03-30T08:49:22.278Z,15.23
2023-03-30T08:51:52.768Z,15.13
2023-03-30T08:54:22.292Z,15.31
2023-03-30T08:57:04.731Z,15.41
2023-03-30T08:59:52.062Z,15.46
2023-03-30T09:02:23.542Z,15.35
2023-03-30T09:05:04.729Z,15.67
2023-03-30T09:07:39.835Z,15.35
2023-03-30T09:10:13.668Z,15.91
2023-03-30T09:12:48.090Z,15.91
2023-03-30T09:15:31.893Z,16.27
2023-03-30T09:18:01.631Z,16.52
2023-03-30T09:20:30.599Z,16.62
2023-03-30T09:23:01.930Z,16.37
2023-03-30T09:25:31.371Z,17.19
2023-03-30T09:28:17.795Z,17.08
2023-03-30T09:30:51.983Z,17.50
2023-03-30T09:33:33.453Z,17.63
2023-03-30T09:36:11.619Z,17.64
2023-03-30T09:38:41.765Z,17.22
2023-03-30T09:41:24.403Z,17.20
2023-03-30T09:43:51.763Z,17.43
2023-03-30T09:46:18.369Z,17.12
2023-03-30T09:48:49.803Z,17.40
2023-03-30T09:51:31.083Z,17.23
2023-03-30T09:54:01.733Z,17.25
2023-03-30T09:56:29.331Z,17.34
2023-03-30T09:58:56.268Z,17.23
2023-03-30T10:01:34.312Z,16.91
2023-03-30T10:04:11.402Z,17.43
2023-03-30T10:06:46.735Z,17.28
2023-03-30T10:09:14.271Z,17.88
2023-03-30T10:11:52.054Z,17.93
2023-03-30T10:14:38.922Z,17.88
2023-03-30T10:17:06.611Z,18.19
2023-03-30T10:19:37.134Z,17.92
2023-03-30T10:22:17.070Z,17.73
2023-03-30T10:25:18.032Z,18.47
2023-03-30T10:27:45.585Z,18.50
2023-03-30T10:30:18.292Z,18.53
2023-03-30T10:32:48.543Z,18.55
2023-03-30T10:35:21.991Z,18.48
2023-03-30T10:37:52.476Z,18.44
2023-03-30T10:40:27.607Z,18.22
2023-03-30T10:42:57.549Z,18.65
2023-03-30T10:45:40.923Z,18.45
2023-03-30T10:48:37.767Z,18.74
2023-03-30T10:51:15.857Z,18.69
2023-03-30T10:54:13.153Z,18.64
2023-03-30T10:56:53.900Z,18.35
2023-03-30T10:59:48.246Z,18.42
2023-03-30T11:02:51.634Z,18.39
2023-03-30T11:05:33.180Z,18.27
2023-03-30T11:08:11.468Z,18.47
2023-03-30T11:10:46.184Z,18.60
2023-03-30T11:13:15.409Z,18.70
2023-03-30T11:15:53.804Z,18.70
2023-03-30T11:18:26.050Z,18.93
2023-03-30T11:20:56.883Z,19.33
2023-03-30T11:23:55.933Z,19.61
2023-03-30T11:26:39.274Z,19.75
2023-03-30T11:29:38.217Z,19.81
2023-03-30T11:32:16.245Z,19.86
2023-03-30T11:35:01.318Z,19.94
2023-03-30T11:37:43.205Z,19.91
2023-03-30T11:40:27.518Z,20.02
2023-03-30T11:42:54.952Z,19.84
2023-03-30T11:45:42.097Z,19.56
2023-03-30T11:48:30.081Z,20.02
2023-03-30T11:51:11.336Z,19.97
2023-03-30T11:53:56.522Z,19.77
2023-03-30T11:56:58.183Z,19.45
2023-03-30T11:59:56.307Z,19.24
2023-03-30T12:02:38.742Z,18.79
2023-03-30T12:05:16.794Z,18.39
2023-03-30T12:08:17.400Z,17.89
2023-03-30T12:10:47.630Z,17.31
2023-03-30T12:13:15.828Z,17.07
2023-03-30T12:16:06.497Z,16.30
2023-03-30T12:18:58.066Z,15.86
2023-03-30T12:21:33.339Z,15.59
2023-03-30T12:24:31.237Z,15.41
2023-03-30T12:27:05.514Z,14.86
2023-03-30T12:32:28.373Z,14.81
2023-03-30T12:34:57.221Z,14.76
2023-03-30T12:37:36.290Z,14.79
2023-03-30T12:40:09.152Z,14.70
2023-03-30T12:42:46.169Z,14.59
2023-03-30T12:45:15.611Z,15.21
2023-03-30T12:48:20.833Z,15.44
2023-03-30T12:50:59.059Z,15.82
2023-03-30T12:53:47.184Z,16.06
2023-03-30T12:56:29.034Z,16.31
2023-03-30T12:59:23.245Z,16.53
2023-03-30T13:02:27.376Z,16.75
2023-03-30T13:04:54.309Z,16.83
2023-03-30T13:07:24.460Z,16.72
2023-03-30T13:09:56.299Z,16.98
2023-03-30T13:12:40.160Z,16.94
2023-03-30T13:15:30.053Z,16.98
2023-03-30T13:17:58.110Z,16.95
2023-03-30T13:20:57.578Z,16.86
2023-03-30T13:23:27.324Z,16.43
2023-03-30T13:26:05.113Z,16.87
2023-03-30T13:29:09.198Z,16.90
2023-03-30T13:31:51.105Z,16.94
2023-03-30T13:34:29.105Z,17.01
2023-03-30T13:37:16.030Z,17.15
2023-03-30T13:39:52.725Z,17.38
2023-03-30T13:42:35.558Z,17.25
2023-03-30T13:45:14.803Z,17.46
2023-03-30T13:47:48.788Z,17.70
2023-03-30T13:50:18.452Z,17.74
2023-03-30T13:52:48.029Z,17.65
2023-03-30T13:55:24.426Z,17.81
2023-03-30T13:57:57.364Z,17.53
2023-03-30T14:00:47.262Z,17.87
2023-03-30T14:03:27.381Z,17.86
2023-03-30T14:06:03.226Z,17.75
2023-03-30T14:08:35.438Z,17.48
2023-03-30T14:11:06.960Z,17.19
2023-03-30T14:13:36.851Z,17.32
2023-03-30T14:16:03.616Z,17.29
2023-03-30T14:18:30.593Z,17.34
2023-03-30T14:21:00.679Z,17.59
2023-03-30T14:23:48.662Z,17.56
2023-03-30T14:26:18.065Z,17.32
2023-03-30T14:28:47.007Z,17.37
2023-03-30T14:31:19.698Z,17.38
2023-03-30T14:33:47.115Z,17.35
2023-03-30T14:36:17.714Z,17.32
2023-03-30T14:38:48.262Z,16.80
2023-03-30T14:41:22.606Z,17.17
2023-03-30T14:43:59.073Z,17.39
2023-03-30T14:46:38.685Z,16.96
2023-03-30T14:49:05.995Z,17.37
2023-03-30T14:51:42.353Z,17.59
2023-03-30T14:54:15.068Z,17.78
2023-03-30T14:56:44.690Z,17.93
2023-03-30T14:59:13.043Z,17.97
2023-03-30T15:01:40.716Z,18.15
2023-03-30T15:04:18.751Z,18.34
2023-03-30T15:06:47.311Z,18.47
2023-03-30T15:09:19.186Z,18.01
2023-03-30T15:11:51.512Z,18.52
2023-03-30T15:14:22.300Z,18.64
2023-03-30T15:16:53.853Z,18.28
2023-03-30T15:19:31.922Z,18.24
2023-03-30T15:22:03.200Z,17.87
2023-03-30T15:24:35.051Z,17.64
2023-03-30T15:27:05.356Z,17.83
2023-03-30T15:29:33.090Z,17.42
2023-03-30T15:32:22.129Z,16.95
2023-03-30T15:35:22.373Z,16.40
2023-03-30T15:37:56.381Z,16.01
2023-03-30T15:40:47.372Z,15.47
2023-03-30T15:43:36.663Z,15.08
2023-03-30T15:46:12.572Z,14.99
2023-03-30T15:48:49.856Z,14.63
2023-03-30T15:51:33.291Z,14.90
2023-03-30T15:54:03.127Z,14.57
2023-03-30T15:56:37.592Z,14.34
2023-03-30T15:59:05.885Z,14.69
2023-03-30T16:01:52.647Z,14.90
2023-03-30T16:04:21.603Z,15.20
2023-03-30T16:06:48.304Z,14.92
2023-03-30T16:09:16.127Z,14.95
2023-03-30T16:11:45.057Z,14.83
2023-03-30T16:14:14.724Z,15.32
2023-03-30T16:16:41.313Z,15.12
2023-03-30T16:19:17.344Z,15.04
2023-03-30T16:21:45.402Z,15.22
2023-03-30T16:24:12.918Z,15.23
2023-03-30T16:26:39.758Z,15.27
2023-03-30T16:29:21.897Z,14.78
2023-03-30T16:31:49.818Z,14.63
2023-03-30T16:34:16.471Z,14.96
2023-03-30T16:36:45.944Z,14.68
2023-03-30T16:39:27.225Z,15.20
2023-03-30T16:41:54.872Z,15.11
2023-03-30T16:44:23.313Z,14.99
2023-03-30T16:46:51.351Z,14.86
2023-03-30T16:49:21.717Z,14.99
2023-03-30T16:51:48.557Z,14.97
2023-03-30T16:54:29.531Z,14.38
2023-03-30T16:56:57.641Z,14.84
2023-03-30T16:59:26.415Z,14.55
2023-03-30T17:01:53.117Z,14.92
2023-03-30T17:04:19.843Z,14.36
2023-03-30T17:06:46.441Z,14.58
2023-03-30T17:09:17.087Z,14.77
2023-03-30T17:11:45.085Z,14.95
2023-03-30T17:14:11.896Z,14.62
2023-03-30T17:16:39.622Z,14.79
2023-03-30T17:19:09.688Z,14.96
2023-03-30T17:21:36.117Z,14.87
2023-03-30T17:24:02.790Z,14.95
2023-03-30T17:26:29.211Z,14.65
2023-03-30T17:28:55.684Z,14.74
2023-03-30T17:31:22.756Z,14.95
2023-03-30T17:33:49.444Z,14.95
2023-03-30T17:36:21.460Z,14.68
2023-03-30T17:38:48.919Z,14.63
2023-03-30T17:41:17.101Z,14.92
2023-03-30T17:43:43.805Z,14.45
2023-03-30T17:46:14.565Z,14.75
2023-03-30T17:48:42.163Z,14.23
2023-03-30T17:51:09.241Z,14.73
2023-03-30T17:53:35.848Z,14.71
2023-03-30T17:56:02.305Z,14.74
2023-03-30T17:58:34.618Z,14.61
2023-03-30T18:01:04.478Z,14.67
2023-03-30T18:03:31.453Z,14.28
2023-03-30T18:06:00.162Z,14.77
2023-03-30T18:08:27.416Z,14.74
2023-03-30T18:10:58.656Z,14.71
2023-03-30T18:13:27.598Z,14.71
2023-03-30T18:15:56.095Z,14.69
2023-03-30T18:18:26.226Z,14.06
2023-03-30T18:20:55.351Z,14.66
2023-03-30T18:23:22.888Z,14.55
2023-03-30T18:25:49.866Z,14.37
2023-03-30T18:28:19.315Z,14.24
2023-03-30T18:30:46.449Z,14.11
2023-03-30T18:33:15.963Z,13.97
2023-03-30T18:35:44.152Z,13.76
2023-03-30T18:38:12.602Z,13.74
2023-03-30T18:40:45.360Z,13.64
2023-03-30T18:43:12.725Z,13.55
2023-03-30T18:45:41.605Z,13.46
2023-03-30T18:48:11.355Z,13.38
2023-03-30T18:50:41.233Z,13.10
2023-03-30T18:53:13.486Z,13.26
2023-03-30T18:55:43.152Z,13.21
2023-03-30T18:58:21.043Z,13.18
2023-03-30T19:00:48.902Z,13.04
2023-03-30T19:03:16.697Z,13.03
2023-03-30T19:05:44.327Z,12.90
2023-03-30T19:08:12.635Z,13.03
2023-03-30T19:10:41.500Z,12.92
2023-03-30T19:13:11.941Z,12.99
2023-03-30T19:15:38.455Z,12.85
2023-03-30T19:18:05.624Z,12.97
2023-03-30T19:20:35.142Z,12.97
2023-03-30T19:23:01.606Z,12.97
2023-03-30T19:25:28.732Z,12.81
2023-03-30T19:28:03.227Z,12.89
2023-03-30T19:30:32.771Z,12.71
2023-03-30T19:33:02.192Z,12.98
2023-03-30T19:35:29.067Z,12.91
2023-03-30T19:37:56.229Z,12.97
2023-03-30T19:40:23.485Z,12.76
2023-03-30T19:42:50.811Z,12.94
2023-03-30T19:45:20.278Z,12.87
2023-03-30T19:47:47.055Z,12.82
2023-03-30T19:50:18.198Z,12.62
2023-03-30T19:52:48.528Z,12.82
2023-03-30T19:55:16.000Z,12.81
2023-03-30T19:57:42.617Z,12.63
2023-03-30T20:00:16.587Z,12.69
2023-03-30T20:02:45.829Z,12.85
2023-03-30T20:05:13.038Z,12.83
2023-03-30T20:07:40.685Z,12.80
2023-03-30T20:10:09.974Z,12.67
2023-03-30T20:12:37.043Z,12.63
2023-03-30T20:15:05.898Z,12.77
2023-03-30T20:17:34.231Z,12.59
2023-03-30T20:20:06.753Z,12.74
2023-03-30T20:22:38.437Z,12.70
2023-03-30T20:25:07.908Z,12.71
2023-03-30T20:27:35.863Z,12.72
2023-03-30T20:30:04.207Z,12.69
2023-03-30T20:32:30.759Z,12.67
2023-03-30T20:34:57.327Z,12.64
2023-03-30T20:37:23.810Z,12.68
2023-03-30T20:39:50.539Z,12.58
2023-03-30T20:42:25.794Z,12.59
2023-03-30T20:44:53.451Z,12.31
2023-03-30T20:47:23.170Z,12.72
2023-03-30T20:49:49.716Z,12.73
2023-03-30T20:52:16.895Z,12.53
2023-03-30T20:54:44.673Z,12.67
2023-03-30T20:57:11.690Z,12.75
2023-03-30T20:59:39.381Z,12.70
2023-03-30T21:02:05.908Z,12.59
2023-03-30T21:04:36.885Z,12.16
2023-03-30T21:07:06.744Z,12.79
2023-03-30T21:09:34.110Z,12.53
2023-03-30T21:12:00.658Z,12.48
2023-03-30T21:14:27.340Z,12.38
2023-03-30T21:16:53.928Z,12.81
2023-03-30T21:19:20.489Z,12.39
2023-03-30T21:21:47.073Z,12.83
2023-03-30T21:24:13.869Z,12.85
2023-03-30T21:26:40.836Z,12.84
2023-03-30T21:29:07.300Z,12.75
2023-03-30T21:31:33.887Z,12.84
2023-03-30T21:34:01.150Z,12.85
2023-03-30T21:36:27.787Z,12.68
2023-03-30T21:38:56.230Z,12.31
2023-03-30T21:41:24.205Z,12.65
2023-03-30T21:43:50.805Z,12.59
2023-03-30T21:46:21.030Z,12.83
2023-03-30T21:48:50.484Z,12.91
2023-03-30T21:51:19.650Z,12.79
2023-03-30T21:53:51.257Z,12.56
2023-03-30T21:56:19.709Z,12.77
2023-03-30T21:58:46.460Z,12.54
2023-03-30T22:01:13.158Z,12.37
2023-03-30T22:03:41.361Z,12.59
2023-03-30T22:06:10.833Z,12.62
2023-03-30T22:08:37.768Z,12.59
2023-03-30T22:11:06.250Z,12.67
2023-03-30T22:13:33.488Z,12.43
2023-03-30T22:16:02.473Z,12.54
2023-03-30T22:18:29.913Z,12.62
2023-03-30T22:21:00.993Z,12.56
2023-03-30T22:23:27.622Z,12.39
2023-03-30T22:25:54.302Z,12.26
2023-03-30T22:28:20.937Z,12.23
2023-03-30T22:30:48.202Z,12.44
2023-03-30T22:33:14.993Z,12.68
2023-03-30T22:35:43.846Z,12.71
2023-03-30T22:38:11.173Z,12.38
2023-03-30T22:40:39.617Z,12.59
2023-03-30T22:43:06.314Z,12.70
2023-03-30T22:45:33.249Z,12.46
2023-03-30T22:47:59.775Z,12.68
2023-03-30T22:50:27.828Z,12.65
2023-03-30T22:52:56.098Z,12.79
2023-03-30T22:55:23.716Z,12.83
2023-03-30T22:57:53.231Z,12.51
2023-03-30T23:00:21.198Z,12.64
2023-03-30T23:02:49.790Z,12.85
2023-03-30T23:05:17.057Z,12.86
2023-03-30T23:07:44.231Z,12.52
2023-03-30T23:10:14.667Z,12.61
2023-03-30T23:12:41.434Z,12.96
2023-03-30T23:15:08.950Z,12.63
2023-03-30T23:17:35.821Z,12.74
2023-03-30T23:20:05.377Z,12.42
2023-03-30T23:22:33.925Z,12.46
2023-03-30T23:25:00.372Z,12.29
2023-03-30T23:27:27.049Z,12.43
2023-03-30T23:29:53.536Z,12.69
2023-03-30T23:32:19.994Z,12.79
2023-03-30T23:34:46.717Z,12.69
2023-03-30T23:37:13.389Z,12.32
2023-03-30T23:39:40.092Z,12.82
2023-03-30T23:42:07.075Z,12.83
2023-03-30T23:44:34.103Z,12.85
2023-03-30T23:47:00.865Z,12.49
2023-03-30T23:49:27.335Z,12.84
2023-03-30T23:51:53.893Z,12.76
2023-03-30T23:54:21.154Z,12.83
2023-03-30T23:56:48.986Z,12.84
2023-03-30T23:59:16.023Z,12.69
